createdAt,value
2022-09-25T00:01:45.581Z,26.45
2022-09-25T00:04:11.916Z,25.95
2022-09-25T00:06:39.140Z,24.35
2022-09-25T00:09:09.095Z,24.85
2022-09-25T00:11:36.423Z,24.42
2022-09-25T00:14:02.863Z,24.65
2022-09-25T00:16:31.426Z,26.10
2022-09-25T00:18:58.761Z,23.92
2022-09-25T00:21:25.451Z,23.10
2022-09-25T00:23:51.852Z,23.38
2022-09-25T00:26:18.370Z,22.05
2022-09-25T00:28:44.714Z,21.83
2022-09-25T00:31:12.271Z,20.83
2022-09-25T00:33:38.741Z,21.05
2022-09-25T00:36:08.091Z,21.65
2022-09-25T00:38:36.153Z,19.08
2022-09-25T00:41:04.253Z,20.58
2022-09-25T00:43:38.715Z,21.65
2022-09-25T00:46:13.423Z,20.00
2022-09-25T00:49:03.586Z,19.73
2022-09-25T00:51:42.016Z,18.95
2022-09-25T00:54:15.383Z,17.80
2022-09-25T00:56:44.668Z,18.73
2022-09-25T00:59:21.051Z,17.17
2022-09-25T01:01:47.609Z,17.30
2022-09-25T01:04:16.623Z,17.55
2022-09-25T01:06:42.969Z,17.85
2022-09-25T01:09:10.985Z,18.90
2022-09-25T01:11:37.309Z,17.30
2022-09-25T01:14:07.434Z,18.80
2022-09-25T01:16:56.944Z,17.05
2022-09-25T01:19:26.084Z,17.10
2022-09-25T01:21:58.871Z,16.85
2022-09-25T01:24:49.602Z,17.42
2022-09-25T01:27:32.727Z,16.45
2022-09-25T01:30:04.911Z,19.73
2022-09-25T01:32:38.309Z,20.75
2022-09-25T01:35:12.023Z,19.65
2022-09-25T01:37:44.201Z,19.98
2022-09-25T01:40:17.252Z,18.95
2022-09-25T01:42:51.266Z,18.75
2022-09-25T01:45:27.919Z,16.87
2022-09-25T01:47:57.355Z,17.38
2022-09-25T01:50:33.732Z,16.15
2022-09-25T01:53:04.286Z,15.45
2022-09-25T01:55:36.613Z,15.20
2022-09-25T01:58:11.221Z,15.65
2022-09-25T02:00:45.220Z,14.50
2022-09-25T02:03:18.077Z,14.63
2022-09-25T02:05:50.368Z,14.45
2022-09-25T02:08:25.600Z,13.80
2022-09-25T02:10:57.157Z,14.27
2022-09-25T02:13:26.103Z,13.50
2022-09-25T02:15:56.742Z,15.00
2022-09-25T02:18:24.687Z,13.68
2022-09-25T02:21:00.000Z,14.23
2022-09-25T02:23:41.676Z,15.18
2022-09-25T02:26:11.602Z,16.63
2022-09-25T02:28:37.906Z,14.85
2022-09-25T02:31:08.896Z,13.77
2022-09-25T02:33:35.403Z,14.73
2022-09-25T02:36:04.580Z,15.18
2022-09-25T02:38:32.999Z,14.48
2022-09-25T02:41:17.072Z,13.43
2022-09-25T02:43:55.748Z,14.55
2022-09-25T02:46:30.046Z,13.93
2022-09-25T02:49:16.313Z,13.05
2022-09-25T02:52:06.527Z,13.15
2022-09-25T02:54:42.979Z,12.40
2022-09-25T02:57:15.715Z,12.60
2022-09-25T02:59:49.146Z,12.70
2022-09-25T03:02:16.758Z,12.77
2022-09-25T03:04:45.989Z,12.43
2022-09-25T03:07:12.449Z,12.02
2022-09-25T03:09:41.556Z,13.23
2022-09-25T03:12:07.861Z,12.20
2022-09-25T03:14:34.146Z,11.75
2022-09-25T03:17:03.044Z,11.60
2022-09-25T03:19:29.882Z,11.52
2022-09-25T03:21:56.695Z,11.82
2022-09-25T03:24:23.200Z,10.38
2022-09-25T03:26:49.922Z,11.43
2022-09-25T03:29:16.190Z,10.43
2022-09-25T03:31:42.821Z,10.93
2022-09-25T03:34:11.200Z,11.00
2022-09-25T03:36:37.508Z,10.07
2022-09-25T03:39:04.013Z,10.93
2022-09-25T03:41:32.446Z,10.73
2022-09-25T03:43:59.500Z,11.18
2022-09-25T03:46:28.499Z,10.27
2022-09-25T03:48:56.309Z,10.43
2022-09-25T03:51:24.188Z,9.90
2022-09-25T03:53:50.948Z,9.95
2022-09-25T03:56:20.380Z,9.50
2022-09-25T03:58:47.911Z,8.73
2022-09-25T04:01:14.805Z,10.52
2022-09-25T04:03:41.483Z,9.48
2022-09-25T04:06:08.635Z,9.52
2022-09-25T04:08:36.561Z,9.75
2022-09-25T04:11:03.871Z,8.88
2022-09-25T04:13:33.170Z,9.13
2022-09-25T04:16:00.822Z,9.25
2022-09-25T04:18:28.472Z,8.57
2022-09-25T04:20:54.756Z,7.75
2022-09-25T04:23:21.046Z,8.18
2022-09-25T04:25:47.338Z,8.18
2022-09-25T04:28:13.622Z,8.60
2022-09-25T04:30:39.902Z,7.90
2022-09-25T04:33:06.205Z,8.65
2022-09-25T04:35:32.618Z,8.48
2022-09-25T04:37:59.078Z,7.65
2022-09-25T04:40:26.311Z,7.78
2022-09-25T04:42:57.291Z,7.60
2022-09-25T04:45:23.657Z,7.78
2022-09-25T04:47:49.946Z,8.45
2022-09-25T04:50:16.262Z,8.13
2022-09-25T04:52:42.549Z,7.95
2022-09-25T04:55:09.072Z,7.63
2022-09-25T04:57:57.098Z,7.55
2022-09-25T05:00:22.849Z,8.00
2022-09-25T05:02:49.327Z,7.95
2022-09-25T05:05:16.338Z,8.30
2022-09-25T05:07:59.799Z,8.20
2022-09-25T05:10:28.600Z,7.63
2022-09-25T05:12:56.677Z,7.60
2022-09-25T05:15:23.255Z,8.07
2022-09-25T05:17:50.006Z,6.93
2022-09-25T05:20:16.398Z,7.28
2022-09-25T05:22:42.744Z,7.30
2022-09-25T05:25:09.409Z,6.30
2022-09-25T05:27:35.702Z,6.63
2022-09-25T05:30:01.988Z,6.78
2022-09-25T05:32:28.327Z,5.85
2022-09-25T05:34:54.616Z,5.32
2022-09-25T05:37:20.886Z,6.28
2022-09-25T05:39:47.216Z,5.95
2022-09-25T05:42:13.528Z,6.30
2022-09-25T05:44:39.803Z,6.05
2022-09-25T05:47:06.104Z,5.20
2022-09-25T05:49:32.397Z,5.15
2022-09-25T05:51:58.687Z,5.53
2022-09-25T05:54:24.954Z,5.60
2022-09-25T05:56:51.248Z,5.85
2022-09-25T05:59:17.552Z,5.18
2022-09-25T06:01:43.869Z,5.07
2022-09-25T06:04:10.284Z,4.25
2022-09-25T06:06:36.663Z,5.60
2022-09-25T06:09:02.986Z,5.25
2022-09-25T06:11:29.269Z,5.20
2022-09-25T06:13:55.556Z,5.10
2022-09-25T06:16:21.976Z,5.18
2022-09-25T06:18:48.317Z,5.25
2022-09-25T06:21:14.653Z,5.07
2022-09-25T06:23:43.696Z,4.68
2022-09-25T06:26:10.006Z,4.47
2022-09-25T06:28:36.307Z,5.55
2022-09-25T06:31:04.478Z,5.50
2022-09-25T06:33:31.599Z,4.90
2022-09-25T06:35:58.076Z,4.93
2022-09-25T06:38:24.403Z,5.32
2022-09-25T06:40:50.719Z,4.50
2022-09-25T06:43:17.063Z,5.05
2022-09-25T06:45:43.878Z,5.10
2022-09-25T06:48:12.815Z,4.75
2022-09-25T06:50:52.146Z,4.53
2022-09-25T06:53:20.363Z,5.70
2022-09-25T06:55:47.368Z,6.18
2022-09-25T06:58:19.819Z,5.90
2022-09-25T07:00:47.462Z,5.60
2022-09-25T07:03:14.095Z,5.15
2022-09-25T07:05:40.471Z,5.28
2022-09-25T07:08:06.778Z,5.30
2022-09-25T07:10:33.055Z,4.10
2022-09-25T07:12:59.356Z,3.95
2022-09-25T07:15:25.653Z,4.10
2022-09-25T07:17:51.927Z,4.10
2022-09-25T07:20:18.228Z,3.70
2022-09-25T07:22:44.514Z,3.50
2022-09-25T07:25:11.351Z,3.95
2022-09-25T07:27:37.632Z,3.60
2022-09-25T07:30:04.906Z,3.25
2022-09-25T07:32:31.219Z,3.38
2022-09-25T07:34:58.335Z,3.50
2022-09-25T07:37:24.894Z,3.35
2022-09-25T07:39:51.206Z,3.72
2022-09-25T07:42:17.485Z,2.95
2022-09-25T07:44:48.143Z,3.50
2022-09-25T07:47:15.153Z,3.13
2022-09-25T07:49:41.488Z,3.38
2022-09-25T07:52:07.763Z,3.47
2022-09-25T07:54:34.064Z,3.17
2022-09-25T07:57:00.368Z,3.55
2022-09-25T07:59:26.661Z,3.67
2022-09-25T08:01:54.273Z,3.75
2022-09-25T08:04:20.906Z,3.65
2022-09-25T08:06:47.226Z,3.72
2022-09-25T08:09:13.535Z,3.70
2022-09-25T08:11:39.823Z,2.92
2022-09-25T08:14:06.154Z,3.03
2022-09-25T08:16:32.470Z,4.53
2022-09-25T08:18:58.840Z,3.53
2022-09-25T08:21:25.416Z,3.75
2022-09-25T08:23:53.985Z,3.90
2022-09-25T08:26:21.663Z,3.10
2022-09-25T08:28:48.466Z,3.20
2022-09-25T08:31:15.318Z,3.15
2022-09-25T08:33:45.816Z,2.88
2022-09-25T08:36:12.106Z,3.08
2022-09-25T08:38:38.407Z,3.88
2022-09-25T08:41:08.110Z,3.22
2022-09-25T08:43:37.746Z,3.50
2022-09-25T08:46:18.373Z,3.67
2022-09-25T08:48:56.495Z,3.30
2022-09-25T08:51:22.809Z,3.08
2022-09-25T08:53:49.258Z,3.45
2022-09-25T08:56:16.537Z,3.78
2022-09-25T08:58:56.509Z,3.28
2022-09-25T09:01:28.960Z,3.20
2022-09-25T09:04:06.845Z,3.10
2022-09-25T09:06:34.182Z,2.80
2022-09-25T09:09:13.425Z,2.90
2022-09-25T09:11:44.457Z,2.85
2022-09-25T09:14:20.382Z,2.90
2022-09-25T09:16:58.534Z,3.05
2022-09-25T09:19:25.100Z,3.78
2022-09-25T09:21:58.126Z,2.70
2022-09-25T09:24:33.448Z,3.35
2022-09-25T09:27:22.594Z,2.80
2022-09-25T09:29:51.518Z,3.00
2022-09-25T09:32:46.349Z,2.22
2022-09-25T09:35:35.754Z,2.30
2022-09-25T09:38:26.555Z,2.65
2022-09-25T09:41:03.755Z,2.47
2022-09-25T09:43:57.382Z,2.80
2022-09-25T09:46:47.198Z,2.22
2022-09-25T09:49:27.679Z,2.10
2022-09-25T09:52:13.605Z,1.95
2022-09-25T09:54:50.178Z,1.70
2022-09-25T09:57:27.341Z,1.58
2022-09-25T10:00:16.186Z,1.60
2022-09-25T10:03:19.231Z,1.67
2022-09-25T10:05:45.584Z,1.40
2022-09-25T10:08:13.107Z,1.70
2022-09-25T10:10:44.051Z,1.50
2022-09-25T10:13:27.643Z,1.50
2022-09-25T10:16:03.978Z,1.63
2022-09-25T10:19:05.657Z,1.75
2022-09-25T10:21:42.506Z,1.48
2022-09-25T10:24:08.897Z,1.90
2022-09-25T10:26:39.917Z,1.60
2022-09-25T10:29:21.304Z,1.40
2022-09-25T10:31:48.216Z,1.70
2022-09-25T10:34:18.808Z,1.50
2022-09-25T10:36:48.089Z,1.70
2022-09-25T10:39:49.826Z,1.98
2022-09-25T10:42:37.957Z,1.52
2022-09-25T10:45:29.654Z,2.05
2022-09-25T10:47:56.120Z,1.83
2022-09-25T10:50:25.663Z,1.40
2022-09-25T10:52:54.150Z,2.17
2022-09-25T10:55:29.350Z,1.50
2022-09-25T10:58:02.719Z,1.95
2022-09-25T11:00:29.704Z,1.45
2022-09-25T11:03:00.148Z,1.65
2022-09-25T11:05:30.349Z,1.55
2022-09-25T11:08:01.172Z,1.80
2022-09-25T11:10:35.479Z,1.50
2022-09-25T11:13:08.660Z,1.50
2022-09-25T11:15:36.784Z,2.38
2022-09-25T11:18:03.154Z,1.52
2022-09-25T11:20:31.202Z,1.30
2022-09-25T11:23:32.454Z,1.40
2022-09-25T11:26:07.251Z,1.35
2022-09-25T11:31:29.834Z,1.50
2022-09-25T11:34:19.815Z,2.05
2022-09-25T11:36:56.843Z,1.50
2022-09-25T11:39:42.567Z,1.77
2022-09-25T11:42:28.155Z,1.42
2022-09-25T11:45:04.878Z,1.50
2022-09-25T11:47:43.540Z,1.85
2022-09-25T11:50:16.649Z,1.63
2022-09-25T11:53:03.991Z,1.48
2022-09-25T11:55:43.215Z,2.05
2022-09-25T11:58:24.391Z,1.40
2022-09-25T12:01:02.033Z,1.55
2022-09-25T12:03:40.551Z,1.48
2022-09-25T12:06:29.158Z,1.50
2022-09-25T12:09:16.917Z,1.10
2022-09-25T12:12:20.730Z,1.40
2022-09-25T12:15:10.029Z,1.35
2022-09-25T12:17:39.256Z,1.35
2022-09-25T12:20:24.496Z,1.40
2022-09-25T12:25:35.527Z,0.80
2022-09-25T12:28:23.400Z,0.98
2022-09-25T12:31:01.277Z,1.25
2022-09-25T12:33:40.260Z,1.00
2022-09-25T12:36:17.760Z,1.42
2022-09-25T12:38:50.215Z,1.00
2022-09-25T12:41:34.118Z,1.58
2022-09-25T12:44:11.459Z,1.20
2022-09-25T12:46:54.642Z,1.30
2022-09-25T12:49:33.468Z,1.40
2022-09-25T12:52:09.476Z,1.20
2022-09-25T12:55:07.201Z,1.38
2022-09-25T12:57:46.295Z,1.58
2022-09-25T13:00:24.004Z,1.40
2022-09-25T13:03:16.093Z,1.35
2022-09-25T13:06:05.680Z,1.15
2022-09-25T13:08:39.452Z,1.08
2022-09-25T13:11:17.438Z,1.10
2022-09-25T13:13:48.375Z,1.20
2022-09-25T13:16:15.713Z,1.30
2022-09-25T13:19:08.566Z,1.27
2022-09-25T13:21:42.638Z,1.30
2022-09-25T13:24:14.485Z,1.25
2022-09-25T13:26:48.261Z,1.17
2022-09-25T13:29:28.120Z,1.17
2022-09-25T13:32:28.397Z,1.30
2022-09-25T13:34:58.376Z,1.30
2022-09-25T13:37:29.102Z,1.23
2022-09-25T13:39:55.695Z,1.30
2022-09-25T13:42:32.354Z,1.10
2022-09-25T13:45:02.915Z,1.02
2022-09-25T13:47:36.049Z,1.40
2022-09-25T13:50:11.398Z,1.33
2022-09-25T13:52:40.674Z,0.80
2022-09-25T13:55:13.116Z,1.15
2022-09-25T13:57:54.622Z,1.20
2022-09-25T14:00:21.584Z,1.00
2022-09-25T14:02:48.759Z,1.30
2022-09-25T14:05:19.184Z,1.35
2022-09-25T14:07:49.118Z,1.20
2022-09-25T14:10:17.760Z,1.20
2022-09-25T14:12:47.077Z,1.10
2022-09-25T14:15:21.785Z,1.13
2022-09-25T14:17:50.060Z,1.38
2022-09-25T14:20:28.596Z,1.00
2022-09-25T14:22:57.695Z,1.35
2022-09-25T14:25:25.474Z,1.45
2022-09-25T14:27:51.784Z,1.23
2022-09-25T14:30:18.484Z,1.00
2022-09-25T14:32:56.492Z,1.77
2022-09-25T14:35:28.114Z,2.05
2022-09-25T14:38:21.443Z,1.38
2022-09-25T14:41:04.968Z,1.23
2022-09-25T14:43:56.454Z,1.42
2022-09-25T14:46:23.182Z,1.13
2022-09-25T14:48:58.751Z,1.05
2022-09-25T14:51:31.060Z,1.30
2022-09-25T14:54:03.666Z,1.38
2022-09-25T14:56:31.210Z,1.20
2022-09-25T14:59:01.866Z,1.42
2022-09-25T15:01:32.805Z,1.77
2022-09-25T15:04:03.324Z,1.10
2022-09-25T15:06:34.903Z,1.50
2022-09-25T15:09:01.953Z,1.33
2022-09-25T15:11:43.294Z,1.20
2022-09-25T15:14:15.075Z,1.20
2022-09-25T15:16:43.377Z,1.65
2022-09-25T15:19:20.466Z,1.17
2022-09-25T15:21:47.517Z,1.30
2022-09-25T15:24:18.810Z,1.10
2022-09-25T15:26:50.318Z,1.48
2022-09-25T15:29:20.604Z,1.52
2022-09-25T15:31:49.475Z,8.05
2022-09-25T15:34:24.577Z,7.05
2022-09-25T15:36:51.831Z,2.58
2022-09-25T15:39:24.989Z,1.23
2022-09-25T15:41:51.943Z,1.15
2022-09-25T15:44:22.594Z,1.27
2022-09-25T15:46:57.390Z,1.67
2022-09-25T15:52:01.188Z,1.35
2022-09-25T15:54:35.505Z,1.23
2022-09-25T15:57:06.143Z,1.33
2022-09-25T15:59:40.236Z,2.28
2022-09-25T16:02:19.406Z,1.85
2022-09-25T16:04:51.659Z,2.67
2022-09-25T16:07:32.095Z,6.60
2022-09-25T16:10:02.399Z,8.45
2022-09-25T16:12:34.728Z,4.15
2022-09-25T16:15:23.777Z,8.70
2022-09-25T16:17:50.141Z,1.70
2022-09-25T16:20:16.368Z,1.30
2022-09-25T16:22:47.724Z,2.70
2022-09-25T16:25:16.900Z,2.00
2022-09-25T16:27:45.171Z,1.45
2022-09-25T16:30:22.936Z,1.52
2022-09-25T16:32:52.692Z,1.38
2022-09-25T16:36:09.369Z,1.92
2022-09-25T16:38:32.364Z,1.65
2022-09-25T16:41:07.129Z,2.10
2022-09-25T16:43:34.390Z,1.15
2022-09-25T16:46:03.213Z,1.25
2022-09-25T16:48:34.656Z,1.23
2022-09-25T16:51:00.973Z,1.00
2022-09-25T16:53:28.796Z,1.00
2022-09-25T16:55:55.262Z,1.20
2022-09-25T16:58:21.552Z,1.10
2022-09-25T17:00:47.850Z,1.30
2022-09-25T17:03:14.308Z,1.10
2022-09-25T17:05:43.633Z,1.10
2022-09-25T17:08:19.516Z,1.40
2022-09-25T17:10:49.247Z,0.90
2022-09-25T17:13:17.757Z,1.10
2022-09-25T17:15:44.100Z,0.90
2022-09-25T17:18:21.273Z,1.48
2022-09-25T17:20:52.371Z,1.30
2022-09-25T17:23:21.137Z,1.33
2022-09-25T17:25:59.676Z,1.42
2022-09-25T17:28:27.723Z,1.80
2022-09-25T17:30:54.105Z,2.20
2022-09-25T17:33:22.787Z,1.80
2022-09-25T17:36:04.769Z,1.50
2022-09-25T17:38:34.284Z,1.40
2022-09-25T17:41:06.611Z,1.58
2022-09-25T17:43:33.595Z,1.33
2022-09-25T17:46:00.921Z,1.50
2022-09-25T17:48:29.777Z,1.52
2022-09-25T17:51:01.975Z,1.25
2022-09-25T17:53:33.102Z,1.40
2022-09-25T17:56:00.656Z,1.67
2022-09-25T17:58:29.331Z,1.15
2022-09-25T18:00:58.229Z,1.27
2022-09-25T18:03:25.087Z,1.33
2022-09-25T18:05:52.351Z,1.30
2022-09-25T18:08:18.713Z,1.63
2022-09-25T18:10:45.764Z,1.77
2022-09-25T18:13:16.498Z,1.20
2022-09-25T18:15:53.484Z,1.90
2022-09-25T18:18:20.303Z,1.73
2022-09-25T18:20:46.640Z,1.70
2022-09-25T18:23:13.055Z,1.33
2022-09-25T18:25:41.010Z,1.60
2022-09-25T18:28:08.522Z,1.50
2022-09-25T18:30:35.246Z,1.50
2022-09-25T18:33:01.571Z,1.48
2022-09-25T18:35:27.903Z,1.60
2022-09-25T18:37:58.097Z,1.58
2022-09-25T18:40:24.529Z,1.50
2022-09-25T18:42:50.915Z,1.90
2022-09-25T18:45:17.635Z,1.60
2022-09-25T18:47:44.022Z,1.50
2022-09-25T18:50:10.643Z,2.13
2022-09-25T18:52:37.853Z,2.22
2022-09-25T18:55:05.191Z,2.25
2022-09-25T18:57:31.578Z,2.08
2022-09-25T18:59:57.998Z,2.30
2022-09-25T19:02:26.791Z,1.98
2022-09-25T19:04:55.114Z,2.30
2022-09-25T19:07:24.586Z,2.00
2022-09-25T19:09:51.650Z,2.33
2022-09-25T19:12:18.794Z,2.10
2022-09-25T19:14:45.640Z,1.90
2022-09-25T19:17:12.765Z,3.00
2022-09-25T19:19:39.071Z,1.83
2022-09-25T19:22:06.776Z,1.90
2022-09-25T19:24:36.437Z,2.15
2022-09-25T19:27:05.339Z,2.08
2022-09-25T19:29:32.541Z,2.17
2022-09-25T19:31:58.889Z,2.15
2022-09-25T19:34:25.371Z,2.15
2022-09-25T19:36:51.707Z,2.10
2022-09-25T19:39:18.143Z,1.80
2022-09-25T19:41:44.504Z,1.90
2022-09-25T19:44:14.083Z,1.90
2022-09-25T19:46:42.441Z,1.90
2022-09-25T19:49:09.404Z,1.90
2022-09-25T19:51:35.719Z,2.10
2022-09-25T19:54:02.117Z,2.08
2022-09-25T19:56:28.437Z,2.58
2022-09-25T19:58:54.948Z,2.20
2022-09-25T20:01:24.665Z,2.53
2022-09-25T20:03:50.991Z,2.25
2022-09-25T20:06:17.341Z,2.13
2022-09-25T20:08:44.152Z,2.42
2022-09-25T20:11:17.090Z,2.65
2022-09-25T20:13:43.849Z,3.00
2022-09-25T20:16:12.825Z,2.58
2022-09-25T20:18:39.198Z,3.58
2022-09-25T20:21:07.409Z,3.28
2022-09-25T20:23:34.583Z,3.15
2022-09-25T20:26:11.846Z,3.50
2022-09-25T20:28:39.936Z,2.90
2022-09-25T20:31:08.749Z,3.80
2022-09-25T20:33:35.280Z,3.35
2022-09-25T20:36:03.712Z,3.08
2022-09-25T20:38:30.038Z,3.20
2022-09-25T20:41:00.950Z,2.90
2022-09-25T20:43:27.646Z,3.25
2022-09-25T20:46:02.203Z,2.75
2022-09-25T20:48:30.326Z,3.30
2022-09-25T20:50:56.686Z,3.25
2022-09-25T20:53:23.031Z,3.35
2022-09-25T20:55:49.372Z,3.33
2022-09-25T20:58:15.695Z,3.60
2022-09-25T21:00:42.000Z,3.80
2022-09-25T21:03:08.695Z,4.30
2022-09-25T21:05:41.295Z,4.28
2022-09-25T21:08:07.580Z,3.70
2022-09-25T21:10:37.537Z,4.20
2022-09-25T21:13:03.859Z,4.50
2022-09-25T21:15:31.601Z,4.18
2022-09-25T21:17:58.055Z,3.55
2022-09-25T21:20:24.404Z,4.32
2022-09-25T21:22:50.690Z,4.10
2022-09-25T21:25:17.011Z,4.20
2022-09-25T21:27:43.325Z,4.32
2022-09-25T21:30:10.143Z,3.88
2022-09-25T21:32:36.437Z,4.05
2022-09-25T21:35:02.750Z,4.28
2022-09-25T21:37:29.049Z,4.32
2022-09-25T21:39:55.341Z,4.35
2022-09-25T21:42:21.740Z,4.95
2022-09-25T21:44:48.031Z,4.95
2022-09-25T21:47:14.332Z,4.72
2022-09-25T21:49:40.684Z,4.82
2022-09-25T21:52:07.001Z,4.00
2022-09-25T21:54:33.324Z,4.43
2022-09-25T21:56:59.637Z,4.57
2022-09-25T21:59:25.962Z,4.75
2022-09-25T22:01:52.408Z,4.55
2022-09-25T22:04:18.801Z,4.57
2022-09-25T22:06:46.788Z,5.03
2022-09-25T22:09:18.087Z,4.95
2022-09-25T22:11:44.463Z,4.85
2022-09-25T22:14:15.794Z,4.32
2022-09-25T22:16:44.281Z,4.55
2022-09-25T22:19:28.839Z,4.60
2022-09-25T22:21:57.504Z,5.05
2022-09-25T22:24:24.708Z,4.70
2022-09-25T22:26:52.354Z,4.55
2022-09-25T22:29:19.506Z,4.63
2022-09-25T22:31:46.220Z,4.93
2022-09-25T22:34:18.535Z,5.32
2022-09-25T22:36:45.814Z,5.28
2022-09-25T22:39:14.630Z,5.05
2022-09-25T22:41:41.072Z,5.15
2022-09-25T22:44:07.399Z,4.32
2022-09-25T22:46:34.347Z,5.35
2022-09-25T22:49:00.828Z,4.80
2022-09-25T22:51:27.481Z,5.07
2022-09-25T22:53:54.848Z,4.95
2022-09-25T22:56:24.980Z,4.90
2022-09-25T22:58:54.473Z,5.07
2022-09-25T23:01:34.140Z,5.15
2022-09-25T23:04:03.759Z,5.05
2022-09-25T23:06:31.926Z,4.70
2022-09-25T23:09:01.040Z,5.28
2022-09-25T23:11:28.115Z,5.28
2022-09-25T23:14:03.479Z,5.18
2022-09-25T23:16:31.622Z,5.13
2022-09-25T23:18:59.320Z,5.13
2022-09-25T23:21:27.160Z,5.25
2022-09-25T23:23:58.314Z,5.65
2022-09-25T23:26:25.508Z,5.20
2022-09-25T23:28:52.031Z,4.88
2022-09-25T23:31:19.423Z,4.85
2022-09-25T23:33:46.470Z,5.35
2022-09-25T23:36:19.525Z,4.95
2022-09-25T23:38:47.918Z,4.90
2022-09-25T23:41:18.449Z,5.10
2022-09-25T23:43:46.202Z,4.85
2022-09-25T23:46:14.224Z,5.32
2022-09-25T23:48:40.991Z,4.75
2022-09-25T23:51:08.310Z,4.57
2022-09-25T23:53:34.689Z,4.95
2022-09-25T23:56:09.086Z,4.22
2022-09-25T23:58:35.618Z,4.78
